Time;durP1;ratioP1;P1;durP2;ratioP2;P2;SDS_P1;SDS_P2;PMS_P1;PMS_P2;Temp;Humidity;BMP_temperature;BMP_pressure;BME280_temperature;BME280_humidity;BME280_pressure;Samples;Min_cycle;Max_cycle;Signal;HPM_P1;HPM_P2
2023/04/06 00:01:07;;;;;;;16.92;10.70;;;8.90;96.00;;;;;;5072606;28;20476;-87
2023/04/06 00:03:33;;;;;;;17.92;10.82;;;8.90;96.00;;;;;;5072593;28;20027;-87
2023/04/06 00:05:58;;;;;;;15.20;10.15;;;8.90;96.00;;;;;;5071782;28;20028;-87
2023/04/06 00:08:24;;;;;;;13.02;9.82;;;8.80;96.00;;;;;;5072569;28;20021;-87
2023/04/06 00:10:50;;;;;;;16.52;10.43;;;8.80;96.00;;;;;;5072207;28;20433;-86
2023/04/06 00:13:15;;;;;;;13.40;10.02;;;8.80;96.00;;;;;;5071003;28;20016;-87
2023/04/06 00:15:41;;;;;;;13.23;9.63;;;8.80;96.00;;;;;;5071990;28;20056;-87
2023/04/06 00:18:06;;;;;;;16.35;10.18;;;8.80;96.10;;;;;;5072143;28;20021;-87
2023/04/06 00:20:32;;;;;;;17.38;10.55;;;8.80;96.10;;;;;;5072178;28;20012;-86
2023/04/06 00:22:58;;;;;;;21.58;11.07;;;8.80;96.00;;;;;;5072228;28;20033;-88
2023/04/06 00:25:23;;;;;;;16.25;10.90;;;8.80;96.00;;;;;;5072532;28;20020;-87
2023/04/06 00:27:49;;;;;;;15.18;10.55;;;8.70;96.00;;;;;;5071541;28;20055;-86
2023/04/06 00:30:15;;;;;;;13.13;11.13;;;8.80;96.00;;;;;;5072491;28;20028;-87
2023/04/06 00:32:40;;;;;;;16.88;10.43;;;8.80;96.10;;;;;;5072093;28;20119;-87
2023/04/06 00:35:06;;;;;;;17.05;10.73;;;8.80;96.10;;;;;;5071597;28;20074;-87
2023/04/06 00:37:32;;;;;;;17.85;10.00;;;8.70;96.10;;;;;;5071897;28;20070;-87
2023/04/06 00:39:58;;;;;;;16.33;11.13;;;8.70;96.10;;;;;;5071569;28;20044;-86
2023/04/06 00:42:27;;;;;;;16.30;11.18;;;8.70;96.10;;;;;;5072548;28;20020;-88
2023/04/06 00:44:54;;;;;;;13.93;9.70;;;9.20;96.50;;;;;;5075857;28;20025;-87
2023/04/06 00:47:21;;;;;;;14.00;10.80;;;9.10;96.30;;;;;;5075430;28;20067;-88
2023/04/06 00:49:47;;;;;;;17.33;10.50;;;8.80;96.30;;;;;;5075659;28;20078;-87
2023/04/06 00:52:13;;;;;;;15.65;10.82;;;8.70;96.30;;;;;;5076051;28;20446;-87
2023/04/06 00:54:38;;;;;;;18.90;11.35;;;8.70;96.30;;;;;;5074978;28;20452;-87
2023/04/06 00:57:04;;;;;;;18.00;11.45;;;8.70;96.40;;;;;;5075960;28;20078;-87
2023/04/06 00:59:30;;;;;;;14.52;11.18;;;8.70;96.50;;;;;;5076132;28;20154;-87
2023/04/06 01:01:55;;;;;;;14.90;10.98;;;8.70;96.40;;;;;;5075190;28;20021;-87
2023/04/06 01:04:24;;;;;;;19.02;10.80;;;8.80;96.50;;;;;;5075813;28;20036;-87
2023/04/06 01:06:50;;;;;;;16.42;11.70;;;9.00;96.50;;;;;;5075116;28;20025;-87
2023/04/06 01:09:17;;;;;;;20.17;11.38;;;8.80;96.50;;;;;;5075143;28;20028;-87
2023/04/06 01:11:43;;;;;;;16.90;10.27;;;8.80;96.40;;;;;;5075229;28;20089;-87
2023/04/06 01:14:14;;;;;;;20.40;11.63;;;9.60;96.60;;;;;;5074373;28;20109;-87
2023/04/06 01:17:00;;;;;;;18.52;12.13;;;8.60;96.50;;;;;;5074244;28;20028;-89
2023/04/06 01:19:26;;;;;;;14.50;11.50;;;8.50;96.40;;;;;;5075171;28;20029;-88
2023/04/06 01:21:54;;;;;;;19.25;11.38;;;9.50;96.80;;;;;;5074844;28;20048;-89
2023/04/06 01:24:20;;;;;;;21.45;10.65;;;10.10;97.00;;;;;;5074702;28;20388;-86
2023/04/06 01:26:45;;;;;;;16.33;11.02;;;9.40;96.80;;;;;;5074715;28;20025;-88
2023/04/06 01:29:12;;;;;;;18.95;11.48;;;8.70;96.60;;;;;;5074720;28;20034;-87
2023/04/06 01:31:38;;;;;;;17.42;11.63;;;8.60;96.60;;;;;;5074824;28;20047;-88
2023/04/06 01:34:03;;;;;;;22.67;11.60;;;8.60;96.70;;;;;;5075176;28;20024;-88
2023/04/06 01:36:32;;;;;;;16.55;11.43;;;8.60;96.70;;;;;;5074265;28;20473;-88
2023/04/06 01:38:57;;;;;;;16.95;10.90;;;8.80;96.70;;;;;;5075227;28;20021;-88
2023/04/06 01:41:23;;;;;;;19.23;11.93;;;9.30;96.80;;;;;;5075130;28;20055;-88
2023/04/06 01:43:49;;;;;;;19.83;12.00;;;8.90;96.70;;;;;;5073933;28;20024;-89
2023/04/06 01:46:15;;;;;;;18.50;12.10;;;9.40;97.10;;;;;;5074937;28;20495;-88
2023/04/06 01:48:41;;;;;;;23.23;11.60;;;8.90;97.10;;;;;;5074613;28;20024;-88
2023/04/06 01:51:24;;;;;;;19.13;11.65;;;8.30;97.10;;;;;;5074572;28;20095;-89
2023/04/06 01:53:50;;;;;;;17.80;11.70;;;8.10;97.30;;;;;;5074459;28;20025;-88
2023/04/06 01:56:22;;;;;;;17.80;11.38;;;8.40;97.20;;;;;;5075001;28;20033;-87
2023/04/06 01:58:47;;;;;;;24.23;12.57;;;9.40;97.50;;;;;;5073769;28;20116;-87
2023/04/06 02:01:13;;;;;;;20.83;12.75;;;9.50;97.60;;;;;;5074903;28;20127;-87
2023/04/06 02:03:38;;;;;;;16.98;12.05;;;8.30;97.40;;;;;;5074750;28;20062;-87
2023/04/06 02:06:04;;;;;;;18.00;12.65;;;9.10;97.80;;;;;;5074069;28;20029;-92
2023/04/06 02:08:41;;;;;;;17.10;11.43;;;8.20;97.80;;;;;;5075446;28;20116;-90
2023/04/06 02:11:07;;;;;;;22.65;12.15;;;8.20;97.70;;;;;;5074485;28;20075;-88
2023/04/06 02:13:32;;;;;;;19.30;12.18;;;8.20;97.80;;;;;;5073675;28;20484;-87
2023/04/06 02:15:58;;;;;;;16.42;11.88;;;8.20;97.80;;;;;;5074471;28;20024;-86
2023/04/06 02:18:24;;;;;;;21.60;11.85;;;8.10;97.60;;;;;;5073896;28;20106;-87
2023/04/06 02:20:49;;;;;;;19.98;12.45;;;8.10;97.70;;;;;;5073900;28;20028;-88
2023/04/06 02:23:15;;;;;;;15.98;11.15;;;8.10;97.80;;;;;;5074256;28;20040;-87
2023/04/06 02:25:41;;;;;;;18.52;12.15;;;8.10;98.10;;;;;;5073259;28;20020;-88
2023/04/06 02:28:06;;;;;;;22.48;11.80;;;8.10;97.90;;;;;;5074230;28;20358;-87
2023/04/06 02:30:32;;;;;;;20.33;11.57;;;8.10;97.90;;;;;;5073558;28;20078;-87
2023/04/06 02:33:01;;;;;;;17.17;12.13;;;8.20;97.80;;;;;;5073525;28;20419;-88
2023/04/06 02:35:31;;;;;;;17.98;11.77;;;8.20;97.70;;;;;;5073944;28;20025;-87
2023/04/06 02:37:57;;;;;;;18.45;12.20;;;8.20;97.90;;;;;;5073889;28;20364;-88
2023/04/06 02:40:22;;;;;;;21.20;12.23;;;8.20;97.80;;;;;;5073475;28;20151;-88
2023/04/06 02:42:48;;;;;;;17.92;11.60;;;8.10;97.80;;;;;;5073804;28;20021;-87
2023/04/06 02:45:13;;;;;;;21.25;12.05;;;8.10;97.80;;;;;;5145984;22;20060;-87
2023/04/06 02:47:39;;;;;;;20.35;11.65;;;8.10;97.90;;;;;;5093418;28;20026;-87
2023/04/06 02:50:05;;;;;;;18.67;12.55;;;8.50;98.00;;;;;;5093638;28;20024;-86
2023/04/06 02:52:31;;;;;;;21.17;12.52;;;8.10;97.90;;;;;;5093709;28;20047;-88
2023/04/06 02:54:57;;;;;;;19.23;12.63;;;8.10;98.00;;;;;;5093572;28;20043;-87
2023/04/06 02:57:22;;;;;;;19.80;12.07;;;9.10;98.40;;;;;;5094061;28;20459;-88
2023/04/06 02:59:48;;;;;;;19.92;13.23;;;8.00;98.20;;;;;;5093886;28;20024;-87
2023/04/06 03:02:13;;;;;;;20.60;12.90;;;8.00;98.10;;;;;;5093308;28;20383;-87
2023/04/06 03:04:39;;;;;;;22.77;12.85;;;8.10;98.30;;;;;;5093402;28;20020;-87
2023/04/06 03:07:05;;;;;;;22.25;13.07;;;8.10;98.20;;;;;;5092705;28;20024;-87
2023/04/06 03:09:30;;;;;;;21.17;13.60;;;8.10;98.20;;;;;;5092701;28;20373;-87
2023/04/06 03:11:56;;;;;;;23.65;12.63;;;8.00;98.30;;;;;;5093418;28;20117;-88
2023/04/06 03:14:22;;;;;;;21.08;13.00;;;8.10;98.40;;;;;;5093171;28;20099;-87
2023/04/06 03:16:48;;;;;;;27.67;14.50;;;8.00;98.50;;;;;;5092427;28;20563;-88
2023/04/06 03:19:15;;;;;;;19.27;13.27;;;8.00;98.50;;;;;;5093206;28;20112;-87
2023/04/06 03:21:41;;;;;;;20.90;13.32;;;8.00;98.60;;;;;;5092531;28;20098;-87
2023/04/06 03:24:07;;;;;;;22.13;13.98;;;8.00;98.70;;;;;;5093306;28;20036;-87
2023/04/06 03:26:32;;;;;;;22.73;13.55;;;8.00;98.70;;;;;;5092811;28;20057;-87
2023/04/06 03:28:58;;;;;;;23.15;13.25;;;8.00;98.80;;;;;;5092728;28;20103;-87
2023/04/06 03:31:23;;;;;;;24.70;14.23;;;8.00;99.00;;;;;;5093329;28;20035;-87
2023/04/06 03:33:49;;;;;;;24.42;13.68;;;8.00;99.00;;;;;;5093210;28;20379;-87
2023/04/06 03:36:15;;;;;;;22.35;14.50;;;7.40;99.10;;;;;;5092796;28;20467;-87
2023/04/06 03:38:40;;;;;;;24.08;13.82;;;7.90;99.20;;;;;;5092736;28;20463;-87
2023/04/06 03:41:06;;;;;;;25.27;14.32;;;7.90;99.30;;;;;;5093049;28;20032;-88
2023/04/06 03:43:31;;;;;;;22.02;14.55;;;8.40;99.50;;;;;;5092134;28;20038;-87
2023/04/06 03:45:57;;;;;;;20.20;13.90;;;7.90;99.50;;;;;;5092879;28;20052;-88
2023/04/06 03:48:34;;;;;;;23.27;14.02;;;7.90;99.50;;;;;;5092778;28;20032;-87
2023/04/06 03:51:00;;;;;;;28.55;14.10;;;9.00;99.90;;;;;;5092432;28;20494;-87
2023/04/06 03:53:26;;;;;;;22.23;14.80;;;7.80;99.80;;;;;;5092838;28;20021;-88
2023/04/06 03:55:52;;;;;;;26.70;14.15;;;7.80;99.80;;;;;;5092760;28;20028;-87
2023/04/06 03:58:17;;;;;;;25.45;14.40;;;7.80;99.90;;;;;;5092302;28;20086;-88
2023/04/06 04:00:43;;;;;;;21.23;13.32;;;8.60;99.90;;;;;;5092047;28;20549;-87
2023/04/06 04:03:08;;;;;;;19.08;13.63;;;7.90;99.90;;;;;;5103856;22;20461;-87
2023/04/06 04:05:34;;;;;;;22.38;14.25;;;7.80;99.90;;;;;;5112767;28;20012;-88
2023/04/06 04:07:59;;;;;;;24.25;15.07;;;7.80;99.90;;;;;;5112856;28;20049;-87
2023/04/06 04:10:25;;;;;;;21.65;14.68;;;7.80;99.90;;;;;;5112734;28;20019;-88
2023/04/06 04:12:50;;;;;;;27.10;14.77;;;7.80;99.90;;;;;;5112226;28;20028;-88
2023/04/06 04:15:16;;;;;;;24.98;14.80;;;7.70;99.90;;;;;;5113207;28;20031;-87
2023/04/06 04:17:46;;;;;;;21.02;14.27;;;7.80;99.90;;;;;;5115051;28;20390;-87
2023/04/06 04:20:12;;;;;;;25.50;14.27;;;7.70;99.90;;;;;;5116904;28;20065;-87
2023/04/06 04:22:37;;;;;;;28.40;14.80;;;8.80;99.90;;;;;;5116500;28;20551;-87
2023/04/06 04:25:03;;;;;;;29.63;14.27;;;7.80;99.90;;;;;;5116559;28;20459;-87
2023/04/06 04:27:29;;;;;;;23.45;15.13;;;7.80;99.90;;;;;;5117455;28;20359;-87
2023/04/06 04:29:55;;;;;;;27.63;15.05;;;7.80;99.90;;;;;;5116997;28;20102;-87
2023/04/06 04:32:20;;;;;;;29.27;14.95;;;7.80;99.90;;;;;;5116580;28;20047;-88
2023/04/06 04:34:47;;;;;;;29.35;16.23;;;7.90;99.90;;;;;;5116790;28;20020;-86
2023/04/06 04:37:12;;;;;;;33.03;15.70;;;7.90;99.90;;;;;;5116639;28;20036;-87
2023/04/06 04:39:38;;;;;;;26.88;15.05;;;7.90;99.90;;;;;;5115407;28;20023;-87
2023/04/06 04:42:03;;;;;;;24.17;15.18;;;7.90;99.90;;;;;;5116727;28;20068;-87
2023/04/06 04:44:29;;;;;;;33.17;16.55;;;7.90;99.90;;;;;;5116662;28;20027;-87
2023/04/06 04:46:54;;;;;;;29.33;16.13;;;7.90;99.90;;;;;;5115732;28;20066;-86
2023/04/06 04:49:20;;;;;;;29.95;15.70;;;8.00;99.90;;;;;;5116400;28;20106;-86
2023/04/06 04:51:45;;;;;;;30.38;15.43;;;8.10;99.90;;;;;;5116322;28;20513;-88
2023/04/06 04:54:11;;;;;;;29.65;15.10;;;8.20;99.90;;;;;;5115326;28;20034;-87
2023/04/06 04:56:36;;;;;;;26.38;15.48;;;8.20;99.90;;;;;;5116112;28;20038;-87
2023/04/06 04:59:10;;;;;;;36.85;15.10;;;9.00;99.90;;;;;;5116601;28;20022;-86
2023/04/06 05:01:36;;;;;;;24.08;15.07;;;8.30;99.90;;;;;;5120874;22;20051;-87
2023/04/06 05:04:02;;;;;;;25.08;15.25;;;8.30;99.90;;;;;;5116174;28;20052;-87
2023/04/06 05:06:27;;;;;;;30.30;16.10;;;8.40;99.90;;;;;;5116283;28;20020;-86
2023/04/06 05:08:53;;;;;;;27.08;15.93;;;8.40;99.90;;;;;;5115620;28;20016;-87
2023/04/06 05:11:18;;;;;;;26.23;16.02;;;8.50;99.90;;;;;;5116238;28;20091;-87
2023/04/06 05:13:44;;;;;;;24.95;15.82;;;8.50;99.90;;;;;;5115837;28;20027;-87
2023/04/06 05:16:09;;;;;;;23.42;16.05;;;8.50;99.90;;;;;;5115539;28;20039;-88
2023/04/06 05:18:35;;;;;;;27.33;15.77;;;8.60;99.90;;;;;;5115591;28;20457;-87
2023/04/06 05:21:01;;;;;;;25.85;16.50;;;8.70;99.90;;;;;;5116265;28;20068;-87
2023/04/06 05:23:26;;;;;;;27.90;17.30;;;8.60;99.90;;;;;;5115418;28;20044;-87
2023/04/06 05:25:52;;;;;;;26.92;16.80;;;8.60;99.90;;;;;;5115632;28;20015;-87
2023/04/06 05:28:18;;;;;;;23.05;15.98;;;9.00;99.90;;;;;;5114509;28;20027;-88
2023/04/06 05:30:44;;;;;;;25.15;15.93;;;8.70;99.90;;;;;;5115432;28;20452;-87
2023/04/06 05:33:11;;;;;;;26.65;16.83;;;9.80;99.90;;;;;;5115758;28;20031;-87
2023/04/06 05:36:00;;;;;;;26.40;17.08;;;9.90;99.90;;;;;;5114529;28;20061;-88
2023/04/06 05:38:44;;;;;;;28.80;16.38;;;8.80;99.90;;;;;;5115484;28;20019;-86
2023/04/06 05:41:10;;;;;;;31.58;16.48;;;8.80;99.90;;;;;;5120040;22;20047;-88
2023/04/06 05:43:36;;;;;;;28.15;16.55;;;8.90;99.90;;;;;;5110515;28;20042;-87
2023/04/06 05:46:02;;;;;;;28.55;16.80;;;8.90;99.90;;;;;;5114829;28;20076;-87
2023/04/06 05:48:27;;;;;;;27.63;16.88;;;8.90;99.90;;;;;;5113899;28;20027;-87
2023/04/06 05:50:53;;;;;;;26.02;16.63;;;8.90;99.90;;;;;;5113512;28;20500;-87
2023/04/06 05:53:20;;;;;;;32.38;17.65;;;8.90;99.90;;;;;;5114688;28;20027;-86
2023/04/06 05:55:46;;;;;;;25.48;17.40;;;8.80;99.90;;;;;;5106131;28;20034;-88
2023/04/06 05:58:12;;;;;;;27.00;16.65;;;8.80;99.90;;;;;;5105152;28;20023;-88
2023/04/06 06:00:37;;;;;;;29.92;17.17;;;8.80;99.90;;;;;;5104121;28;20020;-87
2023/04/06 06:03:08;;;;;;;33.30;16.20;;;8.80;99.90;;;;;;5104665;28;20023;-87
2023/04/06 06:05:34;;;;;;;28.88;17.20;;;8.90;99.90;;;;;;5104669;28;20028;-87
2023/04/06 06:08:01;;;;;;;25.23;15.55;;;8.80;99.90;;;;;;5104155;28;20027;-86
2023/04/06 06:10:27;;;;;;;24.60;16.30;;;8.80;99.90;;;;;;5103030;28;20028;-87
2023/04/06 06:12:53;;;;;;;26.90;16.17;;;8.80;99.90;;;;;;5105097;28;20030;-87
2023/04/06 06:15:19;;;;;;;25.27;16.98;;;8.80;99.90;;;;;;5102742;28;20020;-88
2023/04/06 06:17:44;;;;;;;25.83;17.23;;;8.80;99.90;;;;;;5093398;28;20353;-87
2023/04/06 06:20:10;;;;;;;24.65;16.30;;;8.80;99.90;;;;;;5112364;28;20023;-87
2023/04/06 06:22:36;;;;;;;26.63;15.98;;;8.80;99.90;;;;;;5113879;28;20119;-87
2023/04/06 06:25:02;;;;;;;25.33;16.40;;;8.70;99.90;;;;;;5113200;28;20059;-87
2023/04/06 06:27:27;;;;;;;28.75;17.08;;;8.80;99.90;;;;;;5114161;28;20474;-87
2023/04/06 06:29:53;;;;;;;31.05;17.40;;;8.80;99.90;;;;;;5113728;28;20031;-87
2023/04/06 06:32:19;;;;;;;29.80;17.88;;;8.70;99.90;;;;;;5113058;28;20038;-87
2023/04/06 06:34:44;;;;;;;35.03;16.13;;;8.70;99.90;;;;;;5114236;28;20022;-86
2023/04/06 06:37:10;;;;;;;39.47;16.65;;;8.60;99.90;;;;;;5112881;28;20394;-87
2023/04/06 06:39:35;;;;;;;49.33;18.35;;;8.70;99.90;;;;;;5110837;28;20019;-86
2023/04/06 06:42:01;;;;;;;30.30;17.75;;;8.70;99.90;;;;;;5111604;28;20051;-86
2023/04/06 06:44:27;;;;;;;29.20;17.10;;;8.80;99.90;;;;;;5112483;28;20024;-86
2023/04/06 06:46:53;;;;;;;37.17;17.42;;;8.80;99.90;;;;;;5111299;28;20125;-86
2023/04/06 06:49:19;;;;;;;28.15;17.70;;;8.70;99.90;;;;;;5112695;28;20455;-87
2023/04/06 06:51:47;;;;;;;31.52;16.95;;;8.60;99.90;;;;;;5112084;28;20036;-87
2023/04/06 06:54:12;;;;;;;30.13;16.30;;;8.70;99.90;;;;;;5113826;28;20024;-87
2023/04/06 06:56:39;;;;;;;26.42;17.05;;;8.60;99.90;;;;;;5113348;28;20527;-88
2023/04/06 06:59:05;;;;;;;30.48;16.90;;;8.60;99.90;;;;;;5113732;28;20024;-87
2023/04/06 07:01:33;;;;;;;29.23;17.42;;;8.60;99.90;;;;;;5107253;28;20053;-86
2023/04/06 07:03:58;;;;;;;36.08;17.73;;;8.60;99.90;;;;;;5111360;28;20035;-86
2023/04/06 07:06:24;;;;;;;25.90;17.20;;;8.50;99.90;;;;;;5093646;28;20024;-86
2023/04/06 07:08:49;;;;;;;30.55;16.42;;;8.50;99.90;;;;;;5092615;28;20020;-89
2023/04/06 07:11:15;;;;;;;34.88;18.60;;;8.50;99.90;;;;;;5093565;28;20123;-87
2023/04/06 07:13:40;;;;;;;34.97;17.55;;;8.60;99.90;;;;;;5092181;28;20055;-87
2023/04/06 07:16:09;;;;;;;29.70;18.67;;;8.60;99.90;;;;;;5092862;28;20024;-87
2023/04/06 07:18:34;;;;;;;26.52;16.67;;;8.70;99.90;;;;;;5092401;28;20016;-88
2023/04/06 07:21:00;;;;;;;27.05;17.48;;;8.70;99.90;;;;;;5092966;28;20573;-87
2023/04/06 07:23:25;;;;;;;25.58;17.75;;;8.80;99.90;;;;;;5093427;28;20028;-86
2023/04/06 07:25:53;;;;;;;29.13;18.33;;;8.80;99.90;;;;;;5096278;28;20048;-89
2023/04/06 07:28:18;;;;;;;28.80;17.92;;;8.80;99.90;;;;;;5092877;28;20020;-87
2023/04/06 07:30:45;;;;;;;32.58;17.80;;;8.80;99.90;;;;;;5092286;28;20031;-86
2023/04/06 07:33:11;;;;;;;27.90;17.33;;;9.50;99.90;;;;;;5092816;28;20375;-87
2023/04/06 07:35:37;;;;;;;29.60;17.80;;;8.70;99.90;;;;;;5092097;28;20024;-88
2023/04/06 07:38:03;;;;;;;33.13;19.05;;;9.20;99.90;;;;;;5092946;28;20039;-87
2023/04/06 07:40:28;;;;;;;34.60;19.02;;;8.80;99.90;;;;;;5106209;28;20040;-89
2023/04/06 07:43:15;;;;;;;28.02;18.48;;;9.20;99.90;;;;;;5099929;28;20133;-89
2023/04/06 07:45:41;;;;;;;28.80;19.13;;;8.90;99.90;;;;;;5103857;27;20020;-88
2023/04/06 07:48:12;;;;;;;31.40;18.63;;;8.60;99.90;;;;;;5090951;28;20021;-88
2023/04/06 07:50:37;;;;;;;27.60;18.30;;;8.10;99.90;;;;;;5091202;28;20024;-88
2023/04/06 07:53:03;;;;;;;31.23;18.73;;;9.20;99.90;;;;;;5106908;28;20071;-87
2023/04/06 07:55:35;;;;;;;38.78;19.55;;;10.10;99.90;;;;;;5113509;28;20153;-88
2023/04/06 07:58:12;;;;;;;29.90;19.45;;;9.30;99.90;;;;;;5111741;28;20032;-88
2023/04/06 08:00:38;;;;;;;27.77;18.60;;;9.60;99.90;;;;;;5113294;28;20390;-88
2023/04/06 08:03:04;;;;;;;40.92;20.15;;;10.10;99.90;;;;;;5112718;28;20075;-88
2023/04/06 08:05:30;;;;;;;38.83;19.77;;;10.40;99.90;;;;;;5112752;28;20047;-89
2023/04/06 08:08:11;;;;;;;33.40;20.38;;;9.80;99.90;;;;;;5113365;28;20023;-88
2023/04/06 08:10:37;;;;;;;32.42;19.60;;;9.50;99.90;;;;;;5112045;28;20034;-87
2023/04/06 08:13:20;;;;;;;35.30;20.25;;;9.70;99.90;;;;;;5113324;28;20102;-88
2023/04/06 08:15:46;;;;;;;35.28;20.90;;;9.80;99.90;;;;;;5112623;28;20102;-86
2023/04/06 08:18:20;;;;;;;40.42;21.73;;;10.80;99.90;;;;;;5112354;28;20506;-87
2023/04/06 08:20:46;;;;;;;34.88;21.70;;;9.90;99.90;;;;;;5113082;28;20032;-86
2023/04/06 08:23:12;;;;;;;36.13;21.85;;;9.80;99.90;;;;;;5112946;28;20030;-88
2023/04/06 08:25:37;;;;;;;33.92;21.60;;;9.80;99.90;;;;;;5113837;28;20081;-88
2023/04/06 08:28:15;;;;;;;31.90;22.20;;;9.90;99.90;;;;;;5112282;28;20031;-86
2023/04/06 08:30:42;;;;;;;39.47;22.60;;;9.70;99.90;;;;;;5112208;28;20028;-90
2023/04/06 08:33:08;;;;;;;40.45;23.35;;;9.90;99.90;;;;;;5111619;28;20031;-85
2023/04/06 08:35:33;;;;;;;33.50;20.55;;;9.90;99.90;;;;;;5112155;28;20046;-84
2023/04/06 08:37:59;;;;;;;35.95;22.08;;;9.90;99.90;;;;;;5112689;28;20027;-85
2023/04/06 08:40:25;;;;;;;37.17;22.13;;;9.90;99.90;;;;;;5111955;28;20491;-85
2023/04/06 08:42:54;;;;;;;37.88;21.02;;;9.80;99.90;;;;;;5112062;28;20035;-85
2023/04/06 08:45:21;;;;;;;32.88;22.02;;;9.80;99.90;;;;;;5111561;28;20077;-85
2023/04/06 08:47:48;;;;;;;32.47;20.73;;;9.70;99.90;;;;;;5112667;28;20372;-85
2023/04/06 08:50:16;;;;;;;36.42;21.35;;;9.70;99.90;;;;;;5111223;28;20019;-85
2023/04/06 08:52:43;;;;;;;33.72;20.52;;;9.70;99.90;;;;;;5109611;28;20042;-85
2023/04/06 08:55:09;;;;;;;38.13;22.13;;;9.80;99.90;;;;;;5110306;28;20062;-85
2023/04/06 08:57:36;;;;;;;41.58;21.85;;;9.80;99.90;;;;;;5110185;28;20059;-85
2023/04/06 09:00:02;;;;;;;32.67;20.80;;;9.90;99.90;;;;;;5091572;28;20111;-85
2023/04/06 09:02:27;;;;;;;38.63;23.25;;;9.90;99.90;;;;;;5110353;28;20448;-84
2023/04/06 09:04:54;;;;;;;35.38;21.75;;;9.90;99.90;;;;;;5113115;28;20106;-85
2023/04/06 09:07:20;;;;;;;42.55;24.38;;;9.90;99.90;;;;;;5115712;28;20038;-85
2023/04/06 09:09:49;;;;;;;38.35;21.25;;;9.90;99.90;;;;;;5115840;28;20032;-85
2023/04/06 09:12:24;;;;;;;35.38;22.08;;;9.90;99.90;;;;;;5116048;28;20039;-85
2023/04/06 09:14:49;;;;;;;38.35;22.42;;;10.00;99.90;;;;;;5115271;28;20050;-85
2023/04/06 09:17:29;;;;;;;41.55;22.02;;;10.00;99.90;;;;;;5116031;28;20020;-85
2023/04/06 09:19:57;;;;;;;41.40;21.67;;;10.00;99.90;;;;;;5115640;28;20056;-85
2023/04/06 09:22:25;;;;;;;35.50;21.85;;;10.00;99.90;;;;;;5115199;28;20032;-85
2023/04/06 09:24:52;;;;;;;38.05;21.98;;;10.20;99.90;;;;;;5115504;28;20487;-85
2023/04/06 09:27:29;;;;;;;35.20;20.90;;;10.60;99.90;;;;;;5115579;28;20027;-85
2023/04/06 09:30:16;;;;;;;37.88;20.90;;;9.90;99.90;;;;;;5115572;28;20024;-85
2023/04/06 09:32:52;;;;;;;40.10;22.02;;;10.00;99.90;;;;;;5115392;28;20081;-85
2023/04/06 09:35:19;;;;;;;34.38;21.30;;;10.00;99.90;;;;;;5114784;28;20425;-88
2023/04/06 09:37:47;;;;;;;29.75;18.85;;;10.00;99.90;;;;;;5110479;28;20020;-86
2023/04/06 09:40:13;;;;;;;37.78;21.13;;;10.00;99.90;;;;;;5114875;28;20534;-86
2023/04/06 09:42:41;;;;;;;34.67;21.13;;;10.10;99.90;;;;;;5113683;28;20357;-85
2023/04/06 09:45:07;;;;;;;38.97;18.40;;;10.20;99.90;;;;;;5114067;28;20080;-86
2023/04/06 09:47:35;;;;;;;27.00;16.63;;;10.20;99.90;;;;;;5114700;28;20111;-86
2023/04/06 09:50:03;;;;;;;22.23;15.25;;;10.20;99.90;;;;;;5114261;28;20035;-86
2023/04/06 09:52:33;;;;;;;15.98;10.75;;;10.20;99.90;;;;;;5120809;22;20055;-86
2023/04/06 09:55:04;;;;;;;10.18;7.70;;;10.10;99.90;;;;;;5115175;28;20019;-86
2023/04/06 09:57:45;;;;;;;7.55;6.53;;;10.20;99.90;;;;;;5113630;28;20040;-88
2023/04/06 10:00:14;;;;;;;7.00;6.15;;;10.10;99.90;;;;;;5114069;28;20496;-86
2023/04/06 10:02:46;;;;;;;8.00;6.70;;;10.20;99.90;;;;;;5113675;28;20028;-85
2023/04/06 10:05:39;;;;;;;8.32;6.15;;;10.20;99.90;;;;;;5115120;28;20024;-88
2023/04/06 10:10:52;;;;;;;9.57;6.28;;;10.10;99.90;;;;;;5470510;22;20050;-87
2023/04/06 10:13:39;;;;;;;8.77;5.60;;;9.40;99.90;;;;;;5011364;28;20052;-88
2023/04/06 10:16:35;;;;;;;7.80;6.40;;;10.70;99.90;;;;;;5013631;28;20022;-89
2023/04/06 10:19:18;;;;;;;8.55;7.20;;;10.10;99.90;;;;;;5029878;23;20065;-90
2023/04/06 10:21:48;;;;;;;10.52;7.93;;;10.60;99.90;;;;;;5013920;28;20540;-89
2023/04/06 10:24:29;;;;;;;7.40;6.80;;;10.80;99.90;;;;;;5013820;28;20026;-90
2023/04/06 10:27:27;;;;;;;8.20;7.28;;;10.60;99.90;;;;;;5012463;28;20109;-91
2023/04/06 10:30:04;;;;;;;9.90;6.80;;;10.90;99.90;;;;;;5013594;28;20143;-90
2023/04/06 10:32:38;;;;;;;13.07;7.38;;;10.10;99.90;;;;;;5012615;28;20042;-90
2023/04/06 10:35:16;;;;;;;9.50;7.47;;;10.40;99.90;;;;;;5013931;28;20097;-90
2023/04/06 10:38:32;;;;;;;9.60;7.65;;;10.80;99.90;;;;;;5012651;28;20030;-91
2023/04/06 10:41:07;;;;;;;8.32;7.35;;;10.00;99.90;;;;;;4988364;28;20402;-89
2023/04/06 10:43:40;;;;;;;8.65;7.72;;;10.00;99.90;;;;;;5014577;28;20026;-91
2023/04/06 10:46:07;;;;;;;12.20;7.95;;;10.40;99.90;;;;;;5013363;28;20034;-90
2023/04/06 10:48:46;;;;;;;10.82;8.00;;;10.80;99.90;;;;;;5014537;28;20022;-91
2023/04/06 10:51:17;;;;;;;8.93;8.02;;;11.20;99.90;;;;;;5014700;28;20034;-83
2023/04/06 10:53:58;;;;;;;9.55;7.85;;;10.80;99.90;;;;;;5012959;28;20482;-89
2023/04/06 10:56:39;;;;;;;;;;;10.60;99.90;;;;;;5014165;28;20038;-88
2023/04/06 10:59:24;;;;;;;11.95;8.93;;;9.80;99.90;;;;;;5013052;28;19920;-87
2023/04/06 11:01:56;;;;;;;9.40;8.25;;;10.00;99.90;;;;;;5013293;28;20040;-87
2023/04/06 11:04:23;;;;;;;11.18;8.52;;;9.90;99.90;;;;;;5013690;28;20101;-88
2023/04/06 11:06:54;;;;;;;9.73;8.48;;;9.90;99.90;;;;;;5007453;28;20030;-88
2023/04/06 11:09:28;;;;;;;12.35;8.68;;;10.50;99.90;;;;;;5013301;28;20022;-87
2023/04/06 11:12:06;;;;;;;9.68;7.65;;;10.80;99.90;;;;;;5011736;28;20034;-88
2023/04/06 11:14:31;;;;;;;8.75;7.80;;;9.80;99.90;;;;;;5012381;28;20405;-88
2023/04/06 11:16:57;;;;;;;10.27;8.52;;;10.60;99.90;;;;;;5013017;28;20022;-88
2023/04/06 11:19:22;;;;;;;12.60;7.65;;;9.70;99.90;;;;;;5013683;28;20061;-89
2023/04/06 11:21:49;;;;;;;10.20;7.93;;;10.70;99.90;;;;;;5013046;28;20421;-87
2023/04/06 11:24:26;;;;;;;11.07;7.88;;;10.40;99.90;;;;;;5013667;28;20030;-88
2023/04/06 11:26:57;;;;;;;8.88;7.70;;;10.50;99.90;;;;;;5010467;28;20026;-87
2023/04/06 11:29:37;;;;;;;9.30;7.43;;;9.90;99.90;;;;;;5012815;28;20022;-88
2023/04/06 11:32:09;;;;;;;;;;;11.40;99.90;;;;;;5013585;28;20124;-87
2023/04/06 11:34:40;;;;;;;11.98;7.78;;;9.90;99.90;;;;;;5012287;28;20363;-88
2023/04/06 11:37:12;;;;;;;12.07;7.95;;;10.60;99.90;;;;;;5013230;28;20038;-88
2023/04/06 11:39:55;;;;;;;9.40;7.90;;;10.30;99.90;;;;;;5013128;28;20022;-87
2023/04/06 11:42:35;;;;;;;11.45;8.43;;;9.70;99.90;;;;;;5003398;22;20055;-87
2023/04/06 11:45:01;;;;;;;10.45;8.52;;;9.80;99.90;;;;;;4993090;28;20087;-87
2023/04/06 11:47:40;;;;;;;12.20;8.18;;;10.50;99.90;;;;;;4993103;28;20105;-86
2023/04/06 11:50:15;;;;;;;10.73;8.55;;;10.40;99.90;;;;;;4992513;28;20501;-87
2023/04/06 11:52:42;;;;;;;10.48;8.77;;;9.90;99.90;;;;;;4992781;28;20038;-87
2023/04/06 11:55:29;;;;;;;10.13;9.10;;;9.20;99.90;;;;;;4992591;28;20030;-87
2023/04/06 11:57:55;;;;;;;10.32;9.20;;;10.20;99.90;;;;;;4992547;28;20470;-87
2023/04/06 12:00:38;;;;;;;10.98;9.25;;;11.40;99.90;;;;;;4992552;28;20027;-87
2023/04/06 12:03:13;;;;;;;12.10;10.05;;;10.50;99.90;;;;;;4992606;28;20088;-87
2023/04/06 12:05:54;;;;;;;10.85;8.38;;;10.70;99.90;;;;;;4992929;28;20351;-86
2023/04/06 12:08:19;;;;;;;11.57;9.15;;;10.60;99.90;;;;;;4992893;28;20109;-87
2023/04/06 12:10:54;;;;;;;14.57;8.65;;;10.50;99.90;;;;;;4991982;28;20506;-87
2023/04/06 12:13:20;;;;;;;10.32;9.05;;;10.50;99.90;;;;;;4992345;28;20113;-88
2023/04/06 12:15:49;;;;;;;11.27;9.50;;;10.40;99.90;;;;;;4992432;28;20197;-88
2023/04/06 12:18:21;;;;;;;11.02;9.75;;;10.40;99.90;;;;;;4992353;28;20026;-88
2023/04/06 12:20:46;;;;;;;10.32;9.23;;;10.50;99.90;;;;;;4992924;28;20026;-87
2023/04/06 12:23:12;;;;;;;9.73;8.65;;;10.80;99.90;;;;;;4992509;28;20073;-87
2023/04/06 12:25:47;;;;;;;11.75;10.18;;;11.40;99.90;;;;;;4992530;28;20040;-90
2023/04/06 12:28:26;;;;;;;13.63;10.25;;;10.90;99.90;;;;;;4993364;28;20386;-88
2023/04/06 12:31:14;;;;;;;12.52;9.95;;;10.60;99.90;;;;;;4995373;28;20042;-88
2023/04/06 12:33:55;;;;;;;10.82;8.93;;;10.60;99.90;;;;;;4993180;28;20027;-89
2023/04/06 12:39:04;;;;;;;12.73;10.32;;;9.80;99.90;;;;;;5049074;22;19920;-88
2023/04/06 12:41:50;;;;;;;13.20;9.80;;;11.20;99.90;;;;;;5036162;28;20096;-88
2023/04/06 12:44:16;;;;;;;12.18;9.90;;;10.70;99.90;;;;;;5032189;28;20025;-87
2023/04/06 12:46:50;;;;;;;12.90;9.63;;;9.40;99.90;;;;;;5025689;28;20033;-87
2023/04/06 12:49:18;;;;;;;14.98;9.52;;;11.00;99.90;;;;;;5024357;28;20029;-88
2023/04/06 12:51:44;;;;;;;11.95;9.55;;;10.00;99.90;;;;;;5033918;28;20044;-86